sensor_id;sensor_type;location;lat;lon;timestamp;P1;durP1;ratioP1;P2;durP2;ratioP2
20671;SDS011;10495;50.922;4.760;2022-10-22T00:01:32;6.93;;;2.87;;
20671;SDS011;10495;50.922;4.760;2022-10-22T00:03:58;5.83;;;3.03;;
20671;SDS011;10495;50.922;4.760;2022-10-22T00:06:24;4.20;;;2.50;;
20671;SDS011;10495;50.922;4.760;2022-10-22T00:08:50;5.27;;;2.87;;
20671;SDS011;10495;50.922;4.760;2022-10-22T00:11:16;4.40;;;2.93;;
20671;SDS011;10495;50.922;4.760;2022-10-22T00:13:44;10.27;;;2.80;;
20671;SDS011;10495;50.922;4.760;2022-10-22T00:16:10;7.73;;;3.00;;
20671;SDS011;10495;50.922;4.760;2022-10-22T00:18:36;8.37;;;3.00;;
20671;SDS011;10495;50.922;4.760;2022-10-22T00:21:03;8.70;;;2.83;;
20671;SDS011;10495;50.922;4.760;2022-10-22T00:23:29;4.87;;;2.77;;
20671;SDS011;10495;50.922;4.760;2022-10-22T00:25:55;6.30;;;2.50;;
20671;SDS011;10495;50.922;4.760;2022-10-22T00:28:20;5.60;;;2.20;;
20671;SDS011;10495;50.922;4.760;2022-10-22T00:30:46;7.57;;;3.00;;
20671;SDS011;10495;50.922;4.760;2022-10-22T00:33:12;7.77;;;2.90;;
20671;SDS011;10495;50.922;4.760;2022-10-22T00:35:37;10.50;;;3.50;;
20671;SDS011;10495;50.922;4.760;2022-10-22T00:38:03;9.90;;;2.90;;
20671;SDS011;10495;50.922;4.760;2022-10-22T00:40:29;5.47;;;2.40;;
20671;SDS011;10495;50.922;4.760;2022-10-22T00:42:55;6.87;;;3.17;;
20671;SDS011;10495;50.922;4.760;2022-10-22T00:45:25;2.47;;;2.00;;
20671;SDS011;10495;50.922;4.760;2022-10-22T00:47:59;7.23;;;2.80;;
20671;SDS011;10495;50.922;4.760;2022-10-22T00:52:57;9.47;;;2.80;;
20671;SDS011;10495;50.922;4.760;2022-10-22T00:55:24;9.07;;;2.77;;
20671;SDS011;10495;50.922;4.760;2022-10-22T00:57:53;5.13;;;3.27;;
20671;SDS011;10495;50.922;4.760;2022-10-22T01:00:19;6.40;;;2.53;;
20671;SDS011;10495;50.922;4.760;2022-10-22T01:02:46;10.70;;;3.30;;
20671;SDS011;10495;50.922;4.760;2022-10-22T01:05:13;11.17;;;2.97;;
20671;SDS011;10495;50.922;4.760;2022-10-22T01:07:41;3.73;;;2.20;;
20671;SDS011;10495;50.922;4.760;2022-10-22T01:10:56;5.93;;;2.53;;
20671;SDS011;10495;50.922;4.760;2022-10-22T01:27:06;3.87;;;1.80;;
20671;SDS011;10495;50.922;4.760;2022-10-22T01:29:41;7.33;;;2.00;;
20671;SDS011;10495;50.922;4.760;2022-10-22T01:32:14;5.10;;;2.53;;
20671;SDS011;10495;50.922;4.760;2022-10-22T01:34:43;9.07;;;2.53;;
20671;SDS011;10495;50.922;4.760;2022-10-22T01:37:13;4.43;;;2.40;;
20671;SDS011;10495;50.922;4.760;2022-10-22T01:39:41;4.53;;;2.77;;
20671;SDS011;10495;50.922;4.760;2022-10-22T01:42:10;4.60;;;2.23;;
20671;SDS011;10495;50.922;4.760;2022-10-22T01:44:37;8.43;;;2.67;;
20671;SDS011;10495;50.922;4.760;2022-10-22T01:50:14;6.33;;;2.60;;
20671;SDS011;10495;50.922;4.760;2022-10-22T01:52:56;8.37;;;2.83;;
20671;SDS011;10495;50.922;4.760;2022-10-22T02:04:29;6.03;;;2.47;;
20671;SDS011;10495;50.922;4.760;2022-10-22T02:07:00;6.87;;;2.77;;
20671;SDS011;10495;50.922;4.760;2022-10-22T02:09:30;4.13;;;2.40;;
20671;SDS011;10495;50.922;4.760;2022-10-22T02:11:58;6.30;;;2.90;;
20671;SDS011;10495;50.922;4.760;2022-10-22T02:14:26;6.73;;;2.70;;
20671;SDS011;10495;50.922;4.760;2022-10-22T02:16:54;6.97;;;2.27;;
20671;SDS011;10495;50.922;4.760;2022-10-22T02:19:31;6.87;;;2.53;;
20671;SDS011;10495;50.922;4.760;2022-10-22T02:22:02;6.63;;;2.63;;
20671;SDS011;10495;50.922;4.760;2022-10-22T02:24:28;8.53;;;3.00;;
20671;SDS011;10495;50.922;4.760;2022-10-22T02:27:00;9.23;;;3.10;;
20671;SDS011;10495;50.922;4.760;2022-10-22T02:29:37;7.67;;;3.03;;
20671;SDS011;10495;50.922;4.760;2022-10-22T02:32:09;5.93;;;2.67;;
20671;SDS011;10495;50.922;4.760;2022-10-22T02:34:39;14.70;;;3.30;;
20671;SDS011;10495;50.922;4.760;2022-10-22T02:37:05;9.20;;;2.90;;
20671;SDS011;10495;50.922;4.760;2022-10-22T02:39:32;4.83;;;2.40;;
20671;SDS011;10495;50.922;4.760;2022-10-22T02:42:00;10.47;;;2.63;;
20671;SDS011;10495;50.922;4.760;2022-10-22T02:44:26;6.93;;;2.87;;
20671;SDS011;10495;50.922;4.760;2022-10-22T02:46:52;3.83;;;2.17;;
20671;SDS011;10495;50.922;4.760;2022-10-22T02:49:17;7.57;;;2.33;;
20671;SDS011;10495;50.922;4.760;2022-10-22T02:51:43;9.37;;;2.50;;
20671;SDS011;10495;50.922;4.760;2022-10-22T02:54:08;6.00;;;3.30;;
20671;SDS011;10495;50.922;4.760;2022-10-22T02:56:34;7.07;;;2.87;;
20671;SDS011;10495;50.922;4.760;2022-10-22T02:59:00;7.80;;;2.90;;
20671;SDS011;10495;50.922;4.760;2022-10-22T03:01:25;4.03;;;2.37;;
20671;SDS011;10495;50.922;4.760;2022-10-22T03:03:51;4.00;;;2.40;;
20671;SDS011;10495;50.922;4.760;2022-10-22T03:06:16;8.13;;;2.70;;
20671;SDS011;10495;50.922;4.760;2022-10-22T03:08:42;7.00;;;2.90;;
20671;SDS011;10495;50.922;4.760;2022-10-22T03:11:08;7.20;;;2.43;;
20671;SDS011;10495;50.922;4.760;2022-10-22T03:13:34;10.73;;;2.90;;
20671;SDS011;10495;50.922;4.760;2022-10-22T03:15:59;4.93;;;2.70;;
20671;SDS011;10495;50.922;4.760;2022-10-22T03:18:25;6.17;;;2.80;;
20671;SDS011;10495;50.922;4.760;2022-10-22T03:20:58;9.53;;;2.43;;
20671;SDS011;10495;50.922;4.760;2022-10-22T03:23:28;5.73;;;2.87;;
20671;SDS011;10495;50.922;4.760;2022-10-22T03:25:54;5.47;;;2.50;;
20671;SDS011;10495;50.922;4.760;2022-10-22T03:28:20;5.57;;;2.40;;
20671;SDS011;10495;50.922;4.760;2022-10-22T03:30:45;5.00;;;2.87;;
20671;SDS011;10495;50.922;4.760;2022-10-22T03:33:11;6.47;;;2.30;;
20671;SDS011;10495;50.922;4.760;2022-10-22T03:35:38;3.80;;;2.43;;
20671;SDS011;10495;50.922;4.760;2022-10-22T03:38:08;5.77;;;2.77;;
20671;SDS011;10495;50.922;4.760;2022-10-22T03:40:34;5.03;;;2.10;;
20671;SDS011;10495;50.922;4.760;2022-10-22T03:42:59;9.43;;;2.30;;
20671;SDS011;10495;50.922;4.760;2022-10-22T03:45:25;7.47;;;2.83;;
20671;SDS011;10495;50.922;4.760;2022-10-22T03:47:50;4.33;;;2.00;;
20671;SDS011;10495;50.922;4.760;2022-10-22T03:50:16;8.27;;;2.50;;
20671;SDS011;10495;50.922;4.760;2022-10-22T03:52:41;10.13;;;2.77;;
20671;SDS011;10495;50.922;4.760;2022-10-22T03:55:07;4.57;;;2.67;;
20671;SDS011;10495;50.922;4.760;2022-10-22T03:57:33;6.63;;;2.20;;
20671;SDS011;10495;50.922;4.760;2022-10-22T03:59:58;6.03;;;2.30;;
20671;SDS011;10495;50.922;4.760;2022-10-22T04:02:24;5.30;;;2.10;;
20671;SDS011;10495;50.922;4.760;2022-10-22T04:04:50;13.97;;;3.70;;
20671;SDS011;10495;50.922;4.760;2022-10-22T04:07:15;7.30;;;2.13;;
20671;SDS011;10495;50.922;4.760;2022-10-22T04:09:41;7.80;;;2.70;;
20671;SDS011;10495;50.922;4.760;2022-10-22T04:12:06;7.40;;;2.73;;
20671;SDS011;10495;50.922;4.760;2022-10-22T04:14:33;4.33;;;2.00;;
20671;SDS011;10495;50.922;4.760;2022-10-22T04:16:59;5.33;;;2.47;;
20671;SDS011;10495;50.922;4.760;2022-10-22T04:19:24;3.53;;;2.13;;
20671;SDS011;10495;50.922;4.760;2022-10-22T04:21:50;6.83;;;2.17;;
20671;SDS011;10495;50.922;4.760;2022-10-22T04:24:16;5.63;;;1.90;;
20671;SDS011;10495;50.922;4.760;2022-10-22T04:26:42;7.97;;;2.37;;
20671;SDS011;10495;50.922;4.760;2022-10-22T04:29:07;8.40;;;3.00;;
20671;SDS011;10495;50.922;4.760;2022-10-22T04:31:33;6.50;;;2.50;;
20671;SDS011;10495;50.922;4.760;2022-10-22T04:33:59;6.97;;;2.27;;
20671;SDS011;10495;50.922;4.760;2022-10-22T04:36:26;2.93;;;1.80;;
20671;SDS011;10495;50.922;4.760;2022-10-22T04:38:54;4.27;;;2.00;;
20671;SDS011;10495;50.922;4.760;2022-10-22T04:41:27;5.80;;;2.27;;
20671;SDS011;10495;50.922;4.760;2022-10-22T04:43:58;5.40;;;2.17;;
20671;SDS011;10495;50.922;4.760;2022-10-22T04:46:25;7.70;;;2.40;;
20671;SDS011;10495;50.922;4.760;2022-10-22T04:48:54;8.77;;;2.27;;
20671;SDS011;10495;50.922;4.760;2022-10-22T04:51:20;3.30;;;1.90;;
20671;SDS011;10495;50.922;4.760;2022-10-22T04:53:47;6.53;;;2.17;;
20671;SDS011;10495;50.922;4.760;2022-10-22T04:58:40;5.03;;;1.80;;
20671;SDS011;10495;50.922;4.760;2022-10-22T05:01:14;4.67;;;2.13;;
20671;SDS011;10495;50.922;4.760;2022-10-22T05:03:41;4.83;;;2.17;;
20671;SDS011;10495;50.922;4.760;2022-10-22T05:06:08;7.77;;;2.13;;
20671;SDS011;10495;50.922;4.760;2022-10-22T05:08:34;10.03;;;2.43;;
20671;SDS011;10495;50.922;4.760;2022-10-22T05:11:00;7.30;;;2.00;;
20671;SDS011;10495;50.922;4.760;2022-10-22T05:13:25;9.30;;;2.07;;
20671;SDS011;10495;50.922;4.760;2022-10-22T05:15:51;5.23;;;2.17;;
20671;SDS011;10495;50.922;4.760;2022-10-22T05:18:17;9.17;;;2.17;;
20671;SDS011;10495;50.922;4.760;2022-10-22T05:20:42;8.40;;;2.10;;
20671;SDS011;10495;50.922;4.760;2022-10-22T05:23:08;7.37;;;2.00;;
20671;SDS011;10495;50.922;4.760;2022-10-22T05:25:37;5.50;;;1.70;;
20671;SDS011;10495;50.922;4.760;2022-10-22T05:28:03;6.43;;;2.13;;
20671;SDS011;10495;50.922;4.760;2022-10-22T05:30:29;7.80;;;2.00;;
20671;SDS011;10495;50.922;4.760;2022-10-22T05:32:54;7.90;;;1.90;;
20671;SDS011;10495;50.922;4.760;2022-10-22T05:35:20;6.30;;;2.27;;
20671;SDS011;10495;50.922;4.760;2022-10-22T05:37:45;5.23;;;1.90;;
20671;SDS011;10495;50.922;4.760;2022-10-22T05:40:11;7.07;;;1.90;;
20671;SDS011;10495;50.922;4.760;2022-10-22T05:42:37;7.83;;;1.90;;
20671;SDS011;10495;50.922;4.760;2022-10-22T05:45:02;5.40;;;1.67;;
20671;SDS011;10495;50.922;4.760;2022-10-22T05:47:28;5.43;;;1.90;;
20671;SDS011;10495;50.922;4.760;2022-10-22T05:49:54;4.63;;;1.60;;
20671;SDS011;10495;50.922;4.760;2022-10-22T05:52:21;4.83;;;1.80;;
20671;SDS011;10495;50.922;4.760;2022-10-22T05:54:47;8.30;;;2.50;;
20671;SDS011;10495;50.922;4.760;2022-10-22T05:57:13;25.13;;;2.93;;
20671;SDS011;10495;50.922;4.760;2022-10-22T05:59:38;4.70;;;2.03;;
20671;SDS011;10495;50.922;4.760;2022-10-22T06:02:04;4.87;;;1.63;;
20671;SDS011;10495;50.922;4.760;2022-10-22T06:04:30;4.87;;;2.43;;
20671;SDS011;10495;50.922;4.760;2022-10-22T06:06:55;7.07;;;2.10;;
20671;SDS011;10495;50.922;4.760;2022-10-22T06:09:26;7.73;;;2.00;;
20671;SDS011;10495;50.922;4.760;2022-10-22T06:11:54;5.17;;;2.00;;
20671;SDS011;10495;50.922;4.760;2022-10-22T06:14:20;4.97;;;1.67;;
20671;SDS011;10495;50.922;4.760;2022-10-22T06:16:46;6.17;;;1.87;;
20671;SDS011;10495;50.922;4.760;2022-10-22T06:19:13;6.67;;;1.90;;
20671;SDS011;10495;50.922;4.760;2022-10-22T06:21:40;4.00;;;1.47;;
20671;SDS011;10495;50.922;4.760;2022-10-22T06:24:06;7.43;;;1.60;;
20671;SDS011;10495;50.922;4.760;2022-10-22T06:26:33;3.93;;;1.60;;
20671;SDS011;10495;50.922;4.760;2022-10-22T06:28:59;3.50;;;1.53;;
20671;SDS011;10495;50.922;4.760;2022-10-22T06:31:25;4.90;;;1.87;;
20671;SDS011;10495;50.922;4.760;2022-10-22T06:33:51;7.97;;;1.83;;
20671;SDS011;10495;50.922;4.760;2022-10-22T06:36:18;6.30;;;1.80;;
20671;SDS011;10495;50.922;4.760;2022-10-22T06:38:45;7.83;;;1.70;;
20671;SDS011;10495;50.922;4.760;2022-10-22T06:41:11;8.30;;;1.53;;
20671;SDS011;10495;50.922;4.760;2022-10-22T06:43:39;5.27;;;1.60;;
20671;SDS011;10495;50.922;4.760;2022-10-22T06:46:07;4.87;;;1.80;;
20671;SDS011;10495;50.922;4.760;2022-10-22T06:48:34;5.73;;;1.73;;
20671;SDS011;10495;50.922;4.760;2022-10-22T06:51:02;6.27;;;1.73;;
20671;SDS011;10495;50.922;4.760;2022-10-22T06:53:29;8.23;;;1.53;;
20671;SDS011;10495;50.922;4.760;2022-10-22T06:55:55;7.50;;;1.87;;
20671;SDS011;10495;50.922;4.760;2022-10-22T06:58:21;4.40;;;1.40;;
20671;SDS011;10495;50.922;4.760;2022-10-22T07:00:46;5.77;;;1.93;;
20671;SDS011;10495;50.922;4.760;2022-10-22T07:03:12;2.70;;;1.57;;
20671;SDS011;10495;50.922;4.760;2022-10-22T07:05:38;6.90;;;1.80;;
20671;SDS011;10495;50.922;4.760;2022-10-22T07:08:05;7.17;;;1.83;;
20671;SDS011;10495;50.922;4.760;2022-10-22T07:10:31;5.30;;;1.80;;
20671;SDS011;10495;50.922;4.760;2022-10-22T07:12:57;6.33;;;1.63;;
20671;SDS011;10495;50.922;4.760;2022-10-22T07:15:23;6.63;;;1.63;;
20671;SDS011;10495;50.922;4.760;2022-10-22T07:17:49;4.83;;;1.23;;
20671;SDS011;10495;50.922;4.760;2022-10-22T07:20:16;4.37;;;1.40;;
20671;SDS011;10495;50.922;4.760;2022-10-22T07:22:42;3.27;;;1.60;;
20671;SDS011;10495;50.922;4.760;2022-10-22T07:25:09;7.80;;;1.60;;
20671;SDS011;10495;50.922;4.760;2022-10-22T07:27:34;4.03;;;1.80;;
20671;SDS011;10495;50.922;4.760;2022-10-22T07:30:00;4.43;;;1.60;;
20671;SDS011;10495;50.922;4.760;2022-10-22T07:32:26;7.57;;;2.57;;
20671;SDS011;10495;50.922;4.760;2022-10-22T07:34:51;6.70;;;1.70;;
20671;SDS011;10495;50.922;4.760;2022-10-22T07:37:17;5.50;;;1.73;;
20671;SDS011;10495;50.922;4.760;2022-10-22T07:39:46;5.93;;;1.73;;
20671;SDS011;10495;50.922;4.760;2022-10-22T07:42:12;6.17;;;1.80;;
20671;SDS011;10495;50.922;4.760;2022-10-22T07:44:37;5.27;;;1.63;;
20671;SDS011;10495;50.922;4.760;2022-10-22T07:47:03;8.27;;;1.50;;
20671;SDS011;10495;50.922;4.760;2022-10-22T07:49:29;3.60;;;1.67;;
20671;SDS011;10495;50.922;4.760;2022-10-22T07:51:54;5.77;;;1.40;;
20671;SDS011;10495;50.922;4.760;2022-10-22T07:54:21;4.40;;;1.53;;
20671;SDS011;10495;50.922;4.760;2022-10-22T07:56:47;8.03;;;2.23;;
20671;SDS011;10495;50.922;4.760;2022-10-22T07:59:12;5.97;;;1.50;;
20671;SDS011;10495;50.922;4.760;2022-10-22T08:01:38;7.93;;;1.83;;
20671;SDS011;10495;50.922;4.760;2022-10-22T08:04:03;2.30;;;1.70;;
20671;SDS011;10495;50.922;4.760;2022-10-22T08:06:32;4.27;;;1.97;;
20671;SDS011;10495;50.922;4.760;2022-10-22T08:08:58;5.57;;;2.07;;
20671;SDS011;10495;50.922;4.760;2022-10-22T08:11:23;5.30;;;1.37;;
20671;SDS011;10495;50.922;4.760;2022-10-22T08:13:49;4.63;;;1.73;;
20671;SDS011;10495;50.922;4.760;2022-10-22T08:16:15;4.73;;;1.53;;
20671;SDS011;10495;50.922;4.760;2022-10-22T08:18:40;4.07;;;1.30;;
20671;SDS011;10495;50.922;4.760;2022-10-22T08:21:06;5.13;;;1.83;;
20671;SDS011;10495;50.922;4.760;2022-10-22T08:23:31;6.83;;;1.87;;
20671;SDS011;10495;50.922;4.760;2022-10-22T08:25:58;5.43;;;1.60;;
20671;SDS011;10495;50.922;4.760;2022-10-22T08:28:24;3.70;;;1.47;;
20671;SDS011;10495;50.922;4.760;2022-10-22T08:30:50;9.00;;;2.43;;
20671;SDS011;10495;50.922;4.760;2022-10-22T08:33:15;7.53;;;1.43;;
20671;SDS011;10495;50.922;4.760;2022-10-22T08:35:41;3.43;;;1.20;;
20671;SDS011;10495;50.922;4.760;2022-10-22T08:38:11;4.90;;;2.30;;
20671;SDS011;10495;50.922;4.760;2022-10-22T08:40:37;5.73;;;1.70;;
20671;SDS011;10495;50.922;4.760;2022-10-22T08:43:06;4.57;;;1.80;;
20671;SDS011;10495;50.922;4.760;2022-10-22T08:48:19;5.73;;;1.87;;
20671;SDS011;10495;50.922;4.760;2022-10-22T08:51:06;5.40;;;1.30;;
20671;SDS011;10495;50.922;4.760;2022-10-22T08:53:50;3.90;;;1.37;;
20671;SDS011;10495;50.922;4.760;2022-10-22T08:56:27;4.20;;;1.30;;
20671;SDS011;10495;50.922;4.760;2022-10-22T08:58:58;5.73;;;1.70;;
20671;SDS011;10495;50.922;4.760;2022-10-22T09:01:47;5.10;;;1.90;;
20671;SDS011;10495;50.922;4.760;2022-10-22T09:04:17;6.37;;;2.10;;
20671;SDS011;10495;50.922;4.760;2022-10-22T09:06:54;6.90;;;2.00;;
20671;SDS011;10495;50.922;4.760;2022-10-22T09:09:29;3.80;;;1.60;;
20671;SDS011;10495;50.922;4.760;2022-10-22T09:11:59;8.50;;;2.30;;
20671;SDS011;10495;50.922;4.760;2022-10-22T09:14:26;5.93;;;1.93;;
20671;SDS011;10495;50.922;4.760;2022-10-22T09:21:47;5.67;;;2.50;;
20671;SDS011;10495;50.922;4.760;2022-10-22T09:24:41;8.20;;;1.87;;
20671;SDS011;10495;50.922;4.760;2022-10-22T09:27:14;4.40;;;1.60;;
20671;SDS011;10495;50.922;4.760;2022-10-22T09:29:45;6.33;;;1.37;;
20671;SDS011;10495;50.922;4.760;2022-10-22T09:32:11;8.17;;;1.80;;
20671;SDS011;10495;50.922;4.760;2022-10-22T09:34:38;4.53;;;2.10;;
20671;SDS011;10495;50.922;4.760;2022-10-22T09:37:05;8.67;;;2.30;;
20671;SDS011;10495;50.922;4.760;2022-10-22T09:39:36;3.30;;;1.53;;
20671;SDS011;10495;50.922;4.760;2022-10-22T09:42:05;4.77;;;1.80;;
20671;SDS011;10495;50.922;4.760;2022-10-22T09:44:33;10.17;;;2.03;;
20671;SDS011;10495;50.922;4.760;2022-10-22T09:47:04;7.17;;;2.47;;
20671;SDS011;10495;50.922;4.760;2022-10-22T09:49:48;5.03;;;1.90;;
20671;SDS011;10495;50.922;4.760;2022-10-22T09:52:23;4.37;;;2.00;;
20671;SDS011;10495;50.922;4.760;2022-10-22T09:54:53;7.00;;;1.93;;
20671;SDS011;10495;50.922;4.760;2022-10-22T09:57:21;3.53;;;1.50;;
20671;SDS011;10495;50.922;4.760;2022-10-22T09:59:49;4.40;;;1.47;;
20671;SDS011;10495;50.922;4.760;2022-10-22T10:02:21;5.60;;;1.90;;
20671;SDS011;10495;50.922;4.760;2022-10-22T10:04:50;4.97;;;1.60;;
20671;SDS011;10495;50.922;4.760;2022-10-22T10:07:19;6.70;;;1.90;;
20671;SDS011;10495;50.922;4.760;2022-10-22T10:09:47;6.63;;;2.07;;
20671;SDS011;10495;50.922;4.760;2022-10-22T10:12:22;5.23;;;1.67;;
20671;SDS011;10495;50.922;4.760;2022-10-22T10:17:54;3.83;;;1.33;;
20671;SDS011;10495;50.922;4.760;2022-10-22T10:20:37;7.60;;;2.20;;
20671;SDS011;10495;50.922;4.760;2022-10-22T10:31:26;6.87;;;1.93;;
20671;SDS011;10495;50.922;4.760;2022-10-22T10:36:58;6.47;;;2.20;;
20671;SDS011;10495;50.922;4.760;2022-10-22T10:42:26;3.10;;;1.80;;
20671;SDS011;10495;50.922;4.760;2022-10-22T10:45:11;6.00;;;2.07;;
20671;SDS011;10495;50.922;4.760;2022-10-22T10:50:43;4.80;;;1.50;;
20671;SDS011;10495;50.922;4.760;2022-10-22T10:53:24;8.30;;;1.77;;
20671;SDS011;10495;50.922;4.760;2022-10-22T10:56:12;5.83;;;1.73;;
20671;SDS011;10495;50.922;4.760;2022-10-22T10:58:57;4.27;;;1.60;;
20671;SDS011;10495;50.922;4.760;2022-10-22T11:01:28;8.80;;;2.37;;
20671;SDS011;10495;50.922;4.760;2022-10-22T11:06:54;7.33;;;1.50;;
20671;SDS011;10495;50.922;4.760;2022-10-22T11:09:24;9.07;;;2.40;;
20671;SDS011;10495;50.922;4.760;2022-10-22T11:12:18;5.87;;;1.87;;
20671;SDS011;10495;50.922;4.760;2022-10-22T11:15:06;6.53;;;1.50;;
20671;SDS011;10495;50.922;4.760;2022-10-22T11:17:49;5.00;;;1.70;;
20671;SDS011;10495;50.922;4.760;2022-10-22T11:20:19;7.53;;;1.77;;
20671;SDS011;10495;50.922;4.760;2022-10-22T11:22:50;4.73;;;1.60;;
20671;SDS011;10495;50.922;4.760;2022-10-22T11:25:31;5.77;;;2.40;;
20671;SDS011;10495;50.922;4.760;2022-10-22T11:28:11;5.37;;;2.10;;
20671;SDS011;10495;50.922;4.760;2022-10-22T11:30:42;4.57;;;1.57;;
20671;SDS011;10495;50.922;4.760;2022-10-22T11:33:10;10.70;;;2.43;;
20671;SDS011;10495;50.922;4.760;2022-10-22T11:35:42;5.40;;;1.67;;
20671;SDS011;10495;50.922;4.760;2022-10-22T11:38:14;6.00;;;2.07;;
20671;SDS011;10495;50.922;4.760;2022-10-22T11:40:55;5.03;;;1.80;;
20671;SDS011;10495;50.922;4.760;2022-10-22T11:43:31;8.83;;;1.60;;
20671;SDS011;10495;50.922;4.760;2022-10-22T11:46:23;4.23;;;1.50;;
20671;SDS011;10495;50.922;4.760;2022-10-22T11:49:02;6.63;;;1.80;;
20671;SDS011;10495;50.922;4.760;2022-10-22T11:51:37;2.80;;;2.07;;
20671;SDS011;10495;50.922;4.760;2022-10-22T11:59:39;3.27;;;1.80;;
20671;SDS011;10495;50.922;4.760;2022-10-22T12:07:56;5.23;;;1.70;;
20671;SDS011;10495;50.922;4.760;2022-10-22T12:10:34;6.07;;;1.87;;
20671;SDS011;10495;50.922;4.760;2022-10-22T12:13:23;4.50;;;1.60;;
20671;SDS011;10495;50.922;4.760;2022-10-22T12:15:52;5.53;;;1.77;;
20671;SDS011;10495;50.922;4.760;2022-10-22T12:18:22;3.83;;;1.60;;
20671;SDS011;10495;50.922;4.760;2022-10-22T12:21:03;7.13;;;1.77;;
20671;SDS011;10495;50.922;4.760;2022-10-22T12:23:30;3.60;;;1.80;;
20671;SDS011;10495;50.922;4.760;2022-10-22T12:25:58;3.73;;;1.77;;
20671;SDS011;10495;50.922;4.760;2022-10-22T12:28:23;6.03;;;1.93;;
20671;SDS011;10495;50.922;4.760;2022-10-22T12:30:49;3.60;;;1.80;;
20671;SDS011;10495;50.922;4.760;2022-10-22T12:33:17;6.37;;;1.63;;
20671;SDS011;10495;50.922;4.760;2022-10-22T12:35:45;2.37;;;1.47;;
20671;SDS011;10495;50.922;4.760;2022-10-22T12:38:12;5.70;;;1.83;;
20671;SDS011;10495;50.922;4.760;2022-10-22T12:40:45;2.17;;;1.20;;
20671;SDS011;10495;50.922;4.760;2022-10-22T12:43:13;2.70;;;1.33;;
20671;SDS011;10495;50.922;4.760;2022-10-22T12:45:44;3.90;;;1.47;;
20671;SDS011;10495;50.922;4.760;2022-10-22T12:48:21;7.67;;;2.20;;
20671;SDS011;10495;50.922;4.760;2022-10-22T12:50:48;3.00;;;1.30;;
20671;SDS011;10495;50.922;4.760;2022-10-22T12:53:17;9.30;;;1.87;;
20671;SDS011;10495;50.922;4.760;2022-10-22T12:55:50;7.60;;;1.63;;
20671;SDS011;10495;50.922;4.760;2022-10-22T12:58:27;5.97;;;2.30;;
20671;SDS011;10495;50.922;4.760;2022-10-22T13:00:57;4.03;;;1.83;;
20671;SDS011;10495;50.922;4.760;2022-10-22T13:03:31;3.47;;;1.73;;
20671;SDS011;10495;50.922;4.760;2022-10-22T13:11:29;2.73;;;1.33;;
20671;SDS011;10495;50.922;4.760;2022-10-22T13:14:03;7.67;;;1.57;;
20671;SDS011;10495;50.922;4.760;2022-10-22T13:16:30;7.03;;;1.37;;
20671;SDS011;10495;50.922;4.760;2022-10-22T13:18:56;4.23;;;1.50;;
20671;SDS011;10495;50.922;4.760;2022-10-22T13:21:23;3.67;;;1.40;;
20671;SDS011;10495;50.922;4.760;2022-10-22T13:24:00;4.10;;;1.10;;
20671;SDS011;10495;50.922;4.760;2022-10-22T13:26:32;7.37;;;1.50;;
20671;SDS011;10495;50.922;4.760;2022-10-22T13:29:00;3.93;;;1.20;;
20671;SDS011;10495;50.922;4.760;2022-10-22T13:31:30;4.87;;;1.40;;
20671;SDS011;10495;50.922;4.760;2022-10-22T13:33:58;5.20;;;1.90;;
20671;SDS011;10495;50.922;4.760;2022-10-22T13:36:27;4.47;;;1.17;;
20671;SDS011;10495;50.922;4.760;2022-10-22T13:38:53;5.00;;;1.90;;
20671;SDS011;10495;50.922;4.760;2022-10-22T13:41:26;4.13;;;1.40;;
20671;SDS011;10495;50.922;4.760;2022-10-22T13:43:55;4.07;;;1.57;;
20671;SDS011;10495;50.922;4.760;2022-10-22T13:46:21;2.50;;;1.07;;
20671;SDS011;10495;50.922;4.760;2022-10-22T13:48:48;3.37;;;1.77;;
20671;SDS011;10495;50.922;4.760;2022-10-22T13:51:17;3.33;;;1.27;;
20671;SDS011;10495;50.922;4.760;2022-10-22T13:53:45;3.60;;;1.13;;
20671;SDS011;10495;50.922;4.760;2022-10-22T13:56:15;1.67;;;1.23;;
20671;SDS011;10495;50.922;4.760;2022-10-22T13:58:43;5.27;;;1.10;;
20671;SDS011;10495;50.922;4.760;2022-10-22T14:01:13;6.73;;;1.37;;
20671;SDS011;10495;50.922;4.760;2022-10-22T14:03:40;2.33;;;0.80;;
20671;SDS011;10495;50.922;4.760;2022-10-22T14:06:06;5.37;;;1.37;;
20671;SDS011;10495;50.922;4.760;2022-10-22T14:08:37;3.80;;;1.20;;
20671;SDS011;10495;50.922;4.760;2022-10-22T14:11:03;6.27;;;1.53;;
20671;SDS011;10495;50.922;4.760;2022-10-22T14:13:29;3.20;;;1.23;;
20671;SDS011;10495;50.922;4.760;2022-10-22T14:15:54;3.27;;;1.53;;
20671;SDS011;10495;50.922;4.760;2022-10-22T14:18:24;2.60;;;1.30;;
20671;SDS011;10495;50.922;4.760;2022-10-22T14:20:54;7.27;;;1.50;;
20671;SDS011;10495;50.922;4.760;2022-10-22T14:23:22;4.30;;;1.30;;
20671;SDS011;10495;50.922;4.760;2022-10-22T14:25:49;3.50;;;1.43;;
20671;SDS011;10495;50.922;4.760;2022-10-22T14:28:15;4.53;;;1.67;;
20671;SDS011;10495;50.922;4.760;2022-10-22T14:30:41;1.97;;;1.10;;
20671;SDS011;10495;50.922;4.760;2022-10-22T14:33:14;5.07;;;1.20;;
20671;SDS011;10495;50.922;4.760;2022-10-22T14:35:42;4.20;;;1.53;;
20671;SDS011;10495;50.922;4.760;2022-10-22T14:38:08;7.17;;;1.70;;
20671;SDS011;10495;50.922;4.760;2022-10-22T14:40:34;3.37;;;1.40;;
20671;SDS011;10495;50.922;4.760;2022-10-22T14:43:03;4.13;;;1.10;;
20671;SDS011;10495;50.922;4.760;2022-10-22T14:45:29;2.50;;;0.77;;
20671;SDS011;10495;50.922;4.760;2022-10-22T14:47:54;4.60;;;1.37;;
20671;SDS011;10495;50.922;4.760;2022-10-22T14:50:21;2.63;;;1.10;;
20671;SDS011;10495;50.922;4.760;2022-10-22T14:52:48;7.13;;;1.67;;
20671;SDS011;10495;50.922;4.760;2022-10-22T14:55:15;4.17;;;1.63;;
20671;SDS011;10495;50.922;4.760;2022-10-22T14:57:42;4.70;;;1.27;;
20671;SDS011;10495;50.922;4.760;2022-10-22T15:00:12;3.23;;;1.17;;
20671;SDS011;10495;50.922;4.760;2022-10-22T15:02:40;1.97;;;1.20;;
20671;SDS011;10495;50.922;4.760;2022-10-22T15:05:06;3.60;;;1.13;;
20671;SDS011;10495;50.922;4.760;2022-10-22T15:07:32;3.57;;;1.57;;
20671;SDS011;10495;50.922;4.760;2022-10-22T15:09:58;3.43;;;1.30;;
20671;SDS011;10495;50.922;4.760;2022-10-22T15:12:23;3.03;;;1.10;;
20671;SDS011;10495;50.922;4.760;2022-10-22T15:14:49;3.57;;;1.33;;
20671;SDS011;10495;50.922;4.760;2022-10-22T15:17:15;3.83;;;1.20;;
20671;SDS011;10495;50.922;4.760;2022-10-22T15:19:41;3.57;;;1.13;;
20671;SDS011;10495;50.922;4.760;2022-10-22T15:22:07;3.57;;;1.20;;
20671;SDS011;10495;50.922;4.760;2022-10-22T15:24:34;4.63;;;1.47;;
20671;SDS011;10495;50.922;4.760;2022-10-22T15:26:59;3.80;;;1.30;;
20671;SDS011;10495;50.922;4.760;2022-10-22T15:29:27;2.57;;;1.13;;
20671;SDS011;10495;50.922;4.760;2022-10-22T15:31:54;3.57;;;1.50;;
20671;SDS011;10495;50.922;4.760;2022-10-22T15:36:53;4.13;;;1.47;;
20671;SDS011;10495;50.922;4.760;2022-10-22T15:39:20;4.20;;;1.40;;
20671;SDS011;10495;50.922;4.760;2022-10-22T15:41:46;2.23;;;1.17;;
20671;SDS011;10495;50.922;4.760;2022-10-22T15:44:20;2.30;;;1.70;;
20671;SDS011;10495;50.922;4.760;2022-10-22T15:46:47;4.03;;;2.17;;
20671;SDS011;10495;50.922;4.760;2022-10-22T15:49:14;6.33;;;1.80;;
20671;SDS011;10495;50.922;4.760;2022-10-22T15:51:40;4.77;;;1.43;;
20671;SDS011;10495;50.922;4.760;2022-10-22T15:54:06;2.20;;;1.33;;
20671;SDS011;10495;50.922;4.760;2022-10-22T15:56:36;2.63;;;1.07;;
20671;SDS011;10495;50.922;4.760;2022-10-22T15:59:02;2.97;;;1.20;;
20671;SDS011;10495;50.922;4.760;2022-10-22T16:01:31;7.80;;;1.40;;
20671;SDS011;10495;50.922;4.760;2022-10-22T16:03:58;2.57;;;1.50;;
20671;SDS011;10495;50.922;4.760;2022-10-22T16:06:26;6.23;;;2.10;;
20671;SDS011;10495;50.922;4.760;2022-10-22T16:08:58;2.73;;;1.50;;
20671;SDS011;10495;50.922;4.760;2022-10-22T16:11:24;3.87;;;1.50;;
20671;SDS011;10495;50.922;4.760;2022-10-22T16:13:57;4.57;;;1.60;;
20671;SDS011;10495;50.922;4.760;2022-10-22T16:16:24;3.10;;;1.50;;
20671;SDS011;10495;50.922;4.760;2022-10-22T16:18:51;3.23;;;1.57;;